Sniezka, Poland
Current Conditions -  °F | °C
As of 10:00 AM on Friday 24 Oct 2014 (Local Time) from LKPD Reporting Station
Overcast Overcast  
Wind Chill: 45°   Ceiling: 1200
Heat Index: 45°   Visibility: 6mi
Dew Point: 41°   Wind: 3mph
Humidity: 87%   Direction: NA
Pressure: 30.24"   Gusts: NA
Location:  50.77°N, 15.75°E
Report Text: LKPD 240800Z VRB03KT 9999 OVC012 07/05 Q1024 NOSIG
Loading
Personal Weather Stations






























Interactive Weather Map
Tropical Storm Tracking
New forecast layout! Learn more

10-Day Weather Forecast

Advertisements
Track Severe Weather on mobile